sensor_id;sensor_type;location;lat;lon;timestamp;P1;durP1;ratioP1;P2;durP2;ratioP2
71108;SDS011;59614;51.012;-1.648;2022-07-09T00:00:22;4.70;;;2.80;;
71108;SDS011;59614;51.012;-1.648;2022-07-09T00:02:48;5.82;;;3.10;;
71108;SDS011;59614;51.012;-1.648;2022-07-09T00:05:14;7.22;;;3.03;;
71108;SDS011;59614;51.012;-1.648;2022-07-09T00:07:40;6.68;;;3.05;;
71108;SDS011;59614;51.012;-1.648;2022-07-09T00:10:05;4.20;;;2.72;;
71108;SDS011;59614;51.012;-1.648;2022-07-09T00:12:32;7.60;;;2.78;;
71108;SDS011;59614;51.012;-1.648;2022-07-09T00:14:57;6.80;;;3.10;;
71108;SDS011;59614;51.012;-1.648;2022-07-09T00:17:23;7.28;;;2.88;;
71108;SDS011;59614;51.012;-1.648;2022-07-09T00:19:48;6.10;;;2.70;;
71108;SDS011;59614;51.012;-1.648;2022-07-09T00:22:14;7.30;;;2.83;;
71108;SDS011;59614;51.012;-1.648;2022-07-09T00:24:39;5.80;;;3.17;;
71108;SDS011;59614;51.012;-1.648;2022-07-09T00:27:05;7.65;;;3.00;;
71108;SDS011;59614;51.012;-1.648;2022-07-09T00:29:30;5.55;;;2.65;;
71108;SDS011;59614;51.012;-1.648;2022-07-09T00:31:56;5.82;;;2.95;;
71108;SDS011;59614;51.012;-1.648;2022-07-09T00:34:21;5.93;;;2.92;;
71108;SDS011;59614;51.012;-1.648;2022-07-09T00:36:47;8.73;;;3.00;;
71108;SDS011;59614;51.012;-1.648;2022-07-09T00:39:12;5.45;;;2.88;;
71108;SDS011;59614;51.012;-1.648;2022-07-09T00:41:37;5.93;;;2.83;;
71108;SDS011;59614;51.012;-1.648;2022-07-09T00:44:03;6.03;;;2.60;;
71108;SDS011;59614;51.012;-1.648;2022-07-09T00:46:28;6.32;;;2.85;;
71108;SDS011;59614;51.012;-1.648;2022-07-09T00:48:54;7.57;;;2.88;;
71108;SDS011;59614;51.012;-1.648;2022-07-09T00:51:19;10.20;;;3.20;;
71108;SDS011;59614;51.012;-1.648;2022-07-09T00:53:45;7.25;;;3.08;;
71108;SDS011;59614;51.012;-1.648;2022-07-09T00:58:39;5.65;;;2.70;;
71108;SDS011;59614;51.012;-1.648;2022-07-09T01:01:07;4.22;;;2.72;;
71108;SDS011;59614;51.012;-1.648;2022-07-09T01:03:33;5.30;;;2.80;;
71108;SDS011;59614;51.012;-1.648;2022-07-09T01:05:58;4.53;;;2.45;;
71108;SDS011;59614;51.012;-1.648;2022-07-09T01:08:24;6.75;;;2.78;;
71108;SDS011;59614;51.012;-1.648;2022-07-09T01:10:51;4.88;;;2.60;;
71108;SDS011;59614;51.012;-1.648;2022-07-09T01:13:18;4.72;;;2.60;;
71108;SDS011;59614;51.012;-1.648;2022-07-09T01:15:44;4.85;;;2.58;;
71108;SDS011;59614;51.012;-1.648;2022-07-09T01:18:10;4.75;;;2.47;;
71108;SDS011;59614;51.012;-1.648;2022-07-09T01:20:36;5.18;;;2.70;;
71108;SDS011;59614;51.012;-1.648;2022-07-09T01:23:01;4.90;;;2.70;;
71108;SDS011;59614;51.012;-1.648;2022-07-09T01:25:34;6.00;;;2.75;;
71108;SDS011;59614;51.012;-1.648;2022-07-09T01:28:01;5.85;;;2.58;;
71108;SDS011;59614;51.012;-1.648;2022-07-09T01:30:27;5.63;;;2.65;;
71108;SDS011;59614;51.012;-1.648;2022-07-09T01:32:53;9.00;;;2.75;;
71108;SDS011;59614;51.012;-1.648;2022-07-09T01:35:20;6.20;;;2.40;;
71108;SDS011;59614;51.012;-1.648;2022-07-09T01:37:46;4.30;;;2.40;;
71108;SDS011;59614;51.012;-1.648;2022-07-09T01:40:12;6.05;;;2.50;;
71108;SDS011;59614;51.012;-1.648;2022-07-09T01:42:38;4.22;;;2.47;;
71108;SDS011;59614;51.012;-1.648;2022-07-09T01:45:03;5.05;;;2.40;;
71108;SDS011;59614;51.012;-1.648;2022-07-09T01:47:29;4.25;;;2.30;;
71108;SDS011;59614;51.012;-1.648;2022-07-09T01:49:55;5.57;;;2.10;;
71108;SDS011;59614;51.012;-1.648;2022-07-09T01:52:20;4.32;;;2.20;;
71108;SDS011;59614;51.012;-1.648;2022-07-09T01:54:46;3.40;;;2.10;;
71108;SDS011;59614;51.012;-1.648;2022-07-09T01:57:11;3.42;;;2.22;;
71108;SDS011;59614;51.012;-1.648;2022-07-09T01:59:36;4.35;;;2.13;;
71108;SDS011;59614;51.012;-1.648;2022-07-09T02:02:02;3.15;;;2.10;;
71108;SDS011;59614;51.012;-1.648;2022-07-09T02:04:27;3.92;;;2.00;;
71108;SDS011;59614;51.012;-1.648;2022-07-09T02:06:53;3.10;;;1.80;;
71108;SDS011;59614;51.012;-1.648;2022-07-09T02:09:18;5.07;;;2.17;;
71108;SDS011;59614;51.012;-1.648;2022-07-09T02:11:44;7.47;;;2.10;;
71108;SDS011;59614;51.012;-1.648;2022-07-09T02:14:09;3.25;;;2.00;;
71108;SDS011;59614;51.012;-1.648;2022-07-09T02:16:35;2.83;;;1.95;;
71108;SDS011;59614;51.012;-1.648;2022-07-09T02:19:01;4.88;;;2.10;;
71108;SDS011;59614;51.012;-1.648;2022-07-09T02:21:26;3.33;;;1.92;;
71108;SDS011;59614;51.012;-1.648;2022-07-09T02:23:51;3.50;;;1.80;;
71108;SDS011;59614;51.012;-1.648;2022-07-09T02:26:21;3.10;;;1.90;;
71108;SDS011;59614;51.012;-1.648;2022-07-09T02:28:47;4.85;;;2.00;;
71108;SDS011;59614;51.012;-1.648;2022-07-09T02:31:12;3.22;;;1.85;;
71108;SDS011;59614;51.012;-1.648;2022-07-09T02:33:38;2.88;;;1.80;;
71108;SDS011;59614;51.012;-1.648;2022-07-09T02:36:03;3.15;;;1.90;;
71108;SDS011;59614;51.012;-1.648;2022-07-09T02:38:29;2.85;;;2.00;;
71108;SDS011;59614;51.012;-1.648;2022-07-09T02:40:54;2.92;;;1.90;;
71108;SDS011;59614;51.012;-1.648;2022-07-09T02:43:20;2.55;;;1.70;;
71108;SDS011;59614;51.012;-1.648;2022-07-09T02:45:45;5.95;;;2.08;;
71108;SDS011;59614;51.012;-1.648;2022-07-09T02:48:11;3.10;;;1.85;;
71108;SDS011;59614;51.012;-1.648;2022-07-09T02:50:36;3.58;;;1.80;;
71108;SDS011;59614;51.012;-1.648;2022-07-09T02:53:01;3.78;;;1.80;;
71108;SDS011;59614;51.012;-1.648;2022-07-09T02:55:27;2.47;;;1.75;;
71108;SDS011;59614;51.012;-1.648;2022-07-09T02:57:52;2.80;;;1.85;;
71108;SDS011;59614;51.012;-1.648;2022-07-09T03:00:18;3.20;;;1.60;;
71108;SDS011;59614;51.012;-1.648;2022-07-09T03:02:43;2.83;;;1.92;;
71108;SDS011;59614;51.012;-1.648;2022-07-09T03:05:09;2.13;;;1.80;;
71108;SDS011;59614;51.012;-1.648;2022-07-09T03:07:34;2.35;;;1.90;;
71108;SDS011;59614;51.012;-1.648;2022-07-09T03:10:00;2.78;;;1.98;;
71108;SDS011;59614;51.012;-1.648;2022-07-09T03:12:25;2.92;;;1.90;;
71108;SDS011;59614;51.012;-1.648;2022-07-09T03:14:51;2.95;;;1.90;;
71108;SDS011;59614;51.012;-1.648;2022-07-09T03:17:16;4.80;;;1.80;;
71108;SDS011;59614;51.012;-1.648;2022-07-09T03:19:42;3.20;;;1.85;;
71108;SDS011;59614;51.012;-1.648;2022-07-09T03:22:07;3.42;;;1.90;;
71108;SDS011;59614;51.012;-1.648;2022-07-09T03:24:33;3.95;;;1.77;;
71108;SDS011;59614;51.012;-1.648;2022-07-09T03:26:58;3.58;;;1.90;;
71108;SDS011;59614;51.012;-1.648;2022-07-09T03:29:23;3.28;;;1.83;;
71108;SDS011;59614;51.012;-1.648;2022-07-09T03:31:49;3.13;;;1.70;;
71108;SDS011;59614;51.012;-1.648;2022-07-09T03:34:14;3.28;;;1.90;;
71108;SDS011;59614;51.012;-1.648;2022-07-09T03:36:40;2.95;;;2.00;;
71108;SDS011;59614;51.012;-1.648;2022-07-09T03:39:06;3.63;;;1.90;;
71108;SDS011;59614;51.012;-1.648;2022-07-09T03:41:31;4.95;;;2.03;;
71108;SDS011;59614;51.012;-1.648;2022-07-09T03:43:57;3.17;;;1.83;;
71108;SDS011;59614;51.012;-1.648;2022-07-09T03:46:23;3.15;;;2.03;;
71108;SDS011;59614;51.012;-1.648;2022-07-09T03:48:49;3.47;;;2.08;;
71108;SDS011;59614;51.012;-1.648;2022-07-09T03:51:15;2.65;;;1.90;;
71108;SDS011;59614;51.012;-1.648;2022-07-09T03:53:40;3.55;;;2.08;;
71108;SDS011;59614;51.012;-1.648;2022-07-09T03:56:05;2.00;;;1.70;;
71108;SDS011;59614;51.012;-1.648;2022-07-09T03:58:31;3.45;;;1.90;;
71108;SDS011;59614;51.012;-1.648;2022-07-09T04:00:57;4.13;;;2.10;;
71108;SDS011;59614;51.012;-1.648;2022-07-09T04:03:22;9.23;;;2.30;;
71108;SDS011;59614;51.012;-1.648;2022-07-09T04:05:48;3.33;;;1.90;;
71108;SDS011;59614;51.012;-1.648;2022-07-09T04:08:13;3.60;;;2.10;;
71108;SDS011;59614;51.012;-1.648;2022-07-09T04:10:40;5.38;;;2.10;;
71108;SDS011;59614;51.012;-1.648;2022-07-09T04:13:05;3.10;;;2.00;;
71108;SDS011;59614;51.012;-1.648;2022-07-09T04:15:31;3.75;;;2.15;;
71108;SDS011;59614;51.012;-1.648;2022-07-09T04:17:57;4.18;;;2.42;;
71108;SDS011;59614;51.012;-1.648;2022-07-09T04:20:23;4.50;;;2.10;;
71108;SDS011;59614;51.012;-1.648;2022-07-09T04:22:50;7.15;;;2.40;;
71108;SDS011;59614;51.012;-1.648;2022-07-09T04:25:16;4.65;;;2.40;;
71108;SDS011;59614;51.012;-1.648;2022-07-09T04:27:41;4.60;;;2.20;;
71108;SDS011;59614;51.012;-1.648;2022-07-09T04:30:07;4.43;;;2.30;;
71108;SDS011;59614;51.012;-1.648;2022-07-09T04:32:34;4.37;;;2.20;;
71108;SDS011;59614;51.012;-1.648;2022-07-09T04:34:59;3.40;;;2.15;;
71108;SDS011;59614;51.012;-1.648;2022-07-09T04:37:25;4.13;;;2.20;;
71108;SDS011;59614;51.012;-1.648;2022-07-09T04:39:50;2.90;;;2.00;;
71108;SDS011;59614;51.012;-1.648;2022-07-09T04:42:15;3.40;;;2.10;;
71108;SDS011;59614;51.012;-1.648;2022-07-09T04:44:41;4.40;;;2.17;;
71108;SDS011;59614;51.012;-1.648;2022-07-09T04:47:08;6.07;;;2.20;;
71108;SDS011;59614;51.012;-1.648;2022-07-09T04:49:34;2.78;;;2.00;;
71108;SDS011;59614;51.012;-1.648;2022-07-09T04:52:00;4.35;;;2.38;;
71108;SDS011;59614;51.012;-1.648;2022-07-09T04:54:25;3.45;;;2.40;;
71108;SDS011;59614;51.012;-1.648;2022-07-09T04:56:51;3.55;;;2.20;;
71108;SDS011;59614;51.012;-1.648;2022-07-09T04:59:16;4.13;;;2.20;;
71108;SDS011;59614;51.012;-1.648;2022-07-09T05:01:41;3.97;;;2.17;;
71108;SDS011;59614;51.012;-1.648;2022-07-09T05:04:07;4.80;;;2.30;;
71108;SDS011;59614;51.012;-1.648;2022-07-09T05:06:33;3.92;;;2.33;;
71108;SDS011;59614;51.012;-1.648;2022-07-09T05:08:58;5.65;;;2.50;;
71108;SDS011;59614;51.012;-1.648;2022-07-09T05:11:24;5.03;;;2.13;;
71108;SDS011;59614;51.012;-1.648;2022-07-09T05:13:50;3.70;;;2.40;;
71108;SDS011;59614;51.012;-1.648;2022-07-09T05:16:16;6.57;;;2.40;;
71108;SDS011;59614;51.012;-1.648;2022-07-09T05:18:41;4.45;;;2.40;;
71108;SDS011;59614;51.012;-1.648;2022-07-09T05:21:07;4.50;;;2.20;;
71108;SDS011;59614;51.012;-1.648;2022-07-09T05:23:32;4.97;;;2.35;;
71108;SDS011;59614;51.012;-1.648;2022-07-09T05:25:58;6.25;;;2.63;;
71108;SDS011;59614;51.012;-1.648;2022-07-09T05:28:23;4.30;;;2.35;;
71108;SDS011;59614;51.012;-1.648;2022-07-09T05:30:49;5.10;;;2.55;;
71108;SDS011;59614;51.012;-1.648;2022-07-09T05:33:14;6.45;;;2.55;;
71108;SDS011;59614;51.012;-1.648;2022-07-09T05:35:40;4.95;;;2.60;;
71108;SDS011;59614;51.012;-1.648;2022-07-09T05:38:05;5.57;;;2.45;;
71108;SDS011;59614;51.012;-1.648;2022-07-09T05:40:31;3.75;;;2.25;;
71108;SDS011;59614;51.012;-1.648;2022-07-09T05:42:57;4.28;;;2.50;;
71108;SDS011;59614;51.012;-1.648;2022-07-09T05:45:22;5.28;;;2.60;;
71108;SDS011;59614;51.012;-1.648;2022-07-09T05:47:48;4.80;;;2.50;;
71108;SDS011;59614;51.012;-1.648;2022-07-09T05:50:13;6.18;;;2.63;;
71108;SDS011;59614;51.012;-1.648;2022-07-09T05:52:38;4.78;;;2.58;;
71108;SDS011;59614;51.012;-1.648;2022-07-09T05:55:04;5.53;;;2.47;;
71108;SDS011;59614;51.012;-1.648;2022-07-09T05:57:30;3.97;;;2.20;;
71108;SDS011;59614;51.012;-1.648;2022-07-09T05:59:57;6.88;;;2.70;;
71108;SDS011;59614;51.012;-1.648;2022-07-09T06:02:22;4.72;;;2.65;;
71108;SDS011;59614;51.012;-1.648;2022-07-09T06:04:48;4.15;;;2.50;;
71108;SDS011;59614;51.012;-1.648;2022-07-09T06:07:14;4.53;;;2.67;;
71108;SDS011;59614;51.012;-1.648;2022-07-09T06:09:39;5.82;;;2.42;;
71108;SDS011;59614;51.012;-1.648;2022-07-09T06:12:05;3.58;;;2.35;;
71108;SDS011;59614;51.012;-1.648;2022-07-09T06:14:31;5.70;;;2.33;;
71108;SDS011;59614;51.012;-1.648;2022-07-09T06:16:57;3.40;;;2.42;;
71108;SDS011;59614;51.012;-1.648;2022-07-09T06:19:26;3.67;;;2.40;;
71108;SDS011;59614;51.012;-1.648;2022-07-09T06:21:51;6.38;;;2.55;;
71108;SDS011;59614;51.012;-1.648;2022-07-09T06:24:16;4.93;;;2.58;;
71108;SDS011;59614;51.012;-1.648;2022-07-09T06:26:42;5.97;;;2.28;;
71108;SDS011;59614;51.012;-1.648;2022-07-09T06:29:07;5.10;;;2.50;;
71108;SDS011;59614;51.012;-1.648;2022-07-09T06:31:33;5.07;;;2.50;;
71108;SDS011;59614;51.012;-1.648;2022-07-09T06:33:59;3.40;;;2.13;;
71108;SDS011;59614;51.012;-1.648;2022-07-09T06:36:25;4.93;;;2.60;;
71108;SDS011;59614;51.012;-1.648;2022-07-09T06:38:50;4.60;;;2.60;;
71108;SDS011;59614;51.012;-1.648;2022-07-09T06:41:34;6.65;;;2.80;;
71108;SDS011;59614;51.012;-1.648;2022-07-09T06:44:00;5.97;;;2.80;;
71108;SDS011;59614;51.012;-1.648;2022-07-09T06:46:25;4.20;;;2.53;;
71108;SDS011;59614;51.012;-1.648;2022-07-09T06:48:51;6.55;;;2.47;;
71108;SDS011;59614;51.012;-1.648;2022-07-09T06:51:17;4.75;;;2.60;;
71108;SDS011;59614;51.012;-1.648;2022-07-09T06:53:42;4.55;;;2.35;;
71108;SDS011;59614;51.012;-1.648;2022-07-09T06:56:08;3.50;;;2.17;;
71108;SDS011;59614;51.012;-1.648;2022-07-09T06:58:33;8.48;;;2.30;;
71108;SDS011;59614;51.012;-1.648;2022-07-09T07:00:58;5.13;;;2.30;;
71108;SDS011;59614;51.012;-1.648;2022-07-09T07:03:24;3.90;;;2.20;;
71108;SDS011;59614;51.012;-1.648;2022-07-09T07:05:49;3.47;;;2.30;;
71108;SDS011;59614;51.012;-1.648;2022-07-09T07:08:15;4.63;;;2.40;;
71108;SDS011;59614;51.012;-1.648;2022-07-09T07:10:40;6.20;;;2.13;;
71108;SDS011;59614;51.012;-1.648;2022-07-09T07:13:06;4.03;;;2.10;;
71108;SDS011;59614;51.012;-1.648;2022-07-09T07:15:31;4.53;;;2.28;;
71108;SDS011;59614;51.012;-1.648;2022-07-09T07:17:57;5.45;;;2.03;;
71108;SDS011;59614;51.012;-1.648;2022-07-09T07:20:22;4.18;;;2.13;;
71108;SDS011;59614;51.012;-1.648;2022-07-09T07:22:50;5.07;;;1.75;;
71108;SDS011;59614;51.012;-1.648;2022-07-09T07:25:16;5.40;;;2.00;;
71108;SDS011;59614;51.012;-1.648;2022-07-09T07:27:41;5.22;;;2.13;;
71108;SDS011;59614;51.012;-1.648;2022-07-09T07:30:07;5.50;;;1.90;;
71108;SDS011;59614;51.012;-1.648;2022-07-09T07:32:33;2.40;;;1.55;;
71108;SDS011;59614;51.012;-1.648;2022-07-09T07:34:59;2.78;;;1.60;;
71108;SDS011;59614;51.012;-1.648;2022-07-09T07:37:24;2.25;;;1.75;;
71108;SDS011;59614;51.012;-1.648;2022-07-09T07:39:49;4.47;;;1.50;;
71108;SDS011;59614;51.012;-1.648;2022-07-09T07:42:15;2.13;;;1.50;;
71108;SDS011;59614;51.012;-1.648;2022-07-09T07:44:41;2.60;;;1.60;;
71108;SDS011;59614;51.012;-1.648;2022-07-09T07:47:07;3.17;;;1.60;;
71108;SDS011;59614;51.012;-1.648;2022-07-09T07:49:32;3.88;;;1.63;;
71108;SDS011;59614;51.012;-1.648;2022-07-09T07:51:58;4.47;;;1.63;;
71108;SDS011;59614;51.012;-1.648;2022-07-09T07:54:23;2.47;;;1.50;;
71108;SDS011;59614;51.012;-1.648;2022-07-09T07:56:49;5.47;;;1.70;;
71108;SDS011;59614;51.012;-1.648;2022-07-09T07:59:15;3.00;;;1.50;;
71108;SDS011;59614;51.012;-1.648;2022-07-09T08:01:41;2.88;;;1.70;;
71108;SDS011;59614;51.012;-1.648;2022-07-09T08:04:07;4.22;;;1.50;;
71108;SDS011;59614;51.012;-1.648;2022-07-09T08:06:32;3.28;;;1.60;;
71108;SDS011;59614;51.012;-1.648;2022-07-09T08:08:57;3.72;;;1.60;;
71108;SDS011;59614;51.012;-1.648;2022-07-09T08:11:23;2.80;;;1.67;;
71108;SDS011;59614;51.012;-1.648;2022-07-09T08:13:48;2.03;;;1.50;;
71108;SDS011;59614;51.012;-1.648;2022-07-09T08:16:14;2.70;;;1.67;;
71108;SDS011;59614;51.012;-1.648;2022-07-09T08:18:39;8.88;;;1.70;;
71108;SDS011;59614;51.012;-1.648;2022-07-09T08:21:05;5.32;;;1.70;;
71108;SDS011;59614;51.012;-1.648;2022-07-09T08:23:30;2.53;;;1.75;;
71108;SDS011;59614;51.012;-1.648;2022-07-09T08:25:56;2.88;;;1.88;;
71108;SDS011;59614;51.012;-1.648;2022-07-09T08:28:21;2.75;;;1.67;;
71108;SDS011;59614;51.012;-1.648;2022-07-09T08:30:47;2.10;;;1.40;;
71108;SDS011;59614;51.012;-1.648;2022-07-09T08:33:12;2.28;;;1.60;;
71108;SDS011;59614;51.012;-1.648;2022-07-09T08:35:38;2.97;;;1.58;;
71108;SDS011;59614;51.012;-1.648;2022-07-09T08:38:03;2.22;;;1.50;;
71108;SDS011;59614;51.012;-1.648;2022-07-09T08:40:29;3.00;;;1.60;;
71108;SDS011;59614;51.012;-1.648;2022-07-09T08:42:55;2.13;;;1.50;;
71108;SDS011;59614;51.012;-1.648;2022-07-09T08:45:22;3.53;;;1.90;;
71108;SDS011;59614;51.012;-1.648;2022-07-09T08:47:48;4.85;;;1.63;;
71108;SDS011;59614;51.012;-1.648;2022-07-09T08:50:14;2.97;;;1.77;;
71108;SDS011;59614;51.012;-1.648;2022-07-09T08:52:41;2.08;;;1.40;;
71108;SDS011;59614;51.012;-1.648;2022-07-09T08:55:07;3.35;;;1.70;;
71108;SDS011;59614;51.012;-1.648;2022-07-09T08:57:33;9.20;;;1.63;;
71108;SDS011;59614;51.012;-1.648;2022-07-09T09:00:00;2.10;;;1.40;;
71108;SDS011;59614;51.012;-1.648;2022-07-09T09:02:38;5.55;;;1.77;;
71108;SDS011;59614;51.012;-1.648;2022-07-09T09:05:11;2.47;;;1.50;;
71108;SDS011;59614;51.012;-1.648;2022-07-09T09:07:38;3.40;;;1.40;;
71108;SDS011;59614;51.012;-1.648;2022-07-09T09:10:04;1.63;;;1.25;;
71108;SDS011;59614;51.012;-1.648;2022-07-09T09:12:30;8.48;;;2.30;;
71108;SDS011;59614;51.012;-1.648;2022-07-09T09:14:56;2.88;;;1.75;;
71108;SDS011;59614;51.012;-1.648;2022-07-09T09:17:21;4.45;;;1.80;;
71108;SDS011;59614;51.012;-1.648;2022-07-09T09:19:47;3.10;;;1.60;;
71108;SDS011;59614;51.012;-1.648;2022-07-09T09:22:16;5.18;;;1.70;;
71108;SDS011;59614;51.012;-1.648;2022-07-09T09:24:43;3.83;;;1.60;;
71108;SDS011;59614;51.012;-1.648;2022-07-09T09:27:08;2.97;;;1.63;;
71108;SDS011;59614;51.012;-1.648;2022-07-09T09:29:34;6.43;;;2.17;;
71108;SDS011;59614;51.012;-1.648;2022-07-09T09:32:10;4.10;;;1.60;;
71108;SDS011;59614;51.012;-1.648;2022-07-09T09:34:37;3.33;;;1.55;;
71108;SDS011;59614;51.012;-1.648;2022-07-09T09:37:03;2.42;;;1.60;;
71108;SDS011;59614;51.012;-1.648;2022-07-09T09:39:28;2.40;;;1.40;;
71108;SDS011;59614;51.012;-1.648;2022-07-09T09:44:28;2.08;;;1.40;;
71108;SDS011;59614;51.012;-1.648;2022-07-09T09:46:56;3.38;;;1.42;;
71108;SDS011;59614;51.012;-1.648;2022-07-09T09:49:22;4.90;;;1.80;;
71108;SDS011;59614;51.012;-1.648;2022-07-09T09:52:07;6.00;;;1.60;;
71108;SDS011;59614;51.012;-1.648;2022-07-09T09:54:34;4.05;;;1.70;;
71108;SDS011;59614;51.012;-1.648;2022-07-09T09:57:05;2.17;;;1.50;;
71108;SDS011;59614;51.012;-1.648;2022-07-09T09:59:33;2.88;;;1.52;;
71108;SDS011;59614;51.012;-1.648;2022-07-09T10:02:01;3.08;;;1.55;;
71108;SDS011;59614;51.012;-1.648;2022-07-09T10:04:27;2.25;;;1.55;;
71108;SDS011;59614;51.012;-1.648;2022-07-09T10:06:53;9.13;;;2.15;;
71108;SDS011;59614;51.012;-1.648;2022-07-09T10:09:19;3.55;;;1.73;;
71108;SDS011;59614;51.012;-1.648;2022-07-09T10:11:48;4.05;;;1.60;;
71108;SDS011;59614;51.012;-1.648;2022-07-09T10:14:17;4.05;;;1.50;;
71108;SDS011;59614;51.012;-1.648;2022-07-09T10:17:10;3.20;;;1.63;;
71108;SDS011;59614;51.012;-1.648;2022-07-09T10:20:28;3.90;;;1.50;;
71108;SDS011;59614;51.012;-1.648;2022-07-09T10:22:36;2.45;;;1.60;;
71108;SDS011;59614;51.012;-1.648;2022-07-09T10:25:03;3.83;;;1.40;;
71108;SDS011;59614;51.012;-1.648;2022-07-09T10:27:29;4.35;;;1.55;;
71108;SDS011;59614;51.012;-1.648;2022-07-09T10:30:48;2.33;;;1.50;;
71108;SDS011;59614;51.012;-1.648;2022-07-09T10:33:07;3.08;;;1.60;;
71108;SDS011;59614;51.012;-1.648;2022-07-09T10:35:43;2.33;;;1.55;;
71108;SDS011;59614;51.012;-1.648;2022-07-09T10:38:11;3.22;;;1.45;;
71108;SDS011;59614;51.012;-1.648;2022-07-09T10:40:38;3.08;;;1.50;;
71108;SDS011;59614;51.012;-1.648;2022-07-09T10:43:06;2.58;;;1.52;;
71108;SDS011;59614;51.012;-1.648;2022-07-09T10:48:02;1.77;;;1.50;;
71108;SDS011;59614;51.012;-1.648;2022-07-09T10:50:30;2.35;;;1.60;;
71108;SDS011;59614;51.012;-1.648;2022-07-09T10:52:57;1.67;;;1.55;;
71108;SDS011;59614;51.012;-1.648;2022-07-09T10:57:53;3.72;;;1.70;;
71108;SDS011;59614;51.012;-1.648;2022-07-09T11:00:28;3.85;;;1.50;;
71108;SDS011;59614;51.012;-1.648;2022-07-09T11:05:28;4.00;;;1.70;;
71108;SDS011;59614;51.012;-1.648;2022-07-09T11:07:57;2.05;;;1.50;;
71108;SDS011;59614;51.012;-1.648;2022-07-09T11:10:30;2.92;;;1.70;;
71108;SDS011;59614;51.012;-1.648;2022-07-09T11:15:24;1.63;;;1.38;;
71108;SDS011;59614;51.012;-1.648;2022-07-09T11:18:13;3.63;;;1.55;;
71108;SDS011;59614;51.012;-1.648;2022-07-09T11:20:39;4.82;;;1.80;;
71108;SDS011;59614;51.012;-1.648;2022-07-09T11:23:08;3.55;;;1.58;;
71108;SDS011;59614;51.012;-1.648;2022-07-09T11:25:34;3.50;;;1.70;;
71108;SDS011;59614;51.012;-1.648;2022-07-09T11:28:00;1.65;;;1.52;;
71108;SDS011;59614;51.012;-1.648;2022-07-09T11:30:26;2.90;;;1.60;;
71108;SDS011;59614;51.012;-1.648;2022-07-09T11:32:53;3.55;;;1.50;;
71108;SDS011;59614;51.012;-1.648;2022-07-09T11:35:26;3.78;;;1.48;;
71108;SDS011;59614;51.012;-1.648;2022-07-09T11:38:04;2.00;;;1.50;;
71108;SDS011;59614;51.012;-1.648;2022-07-09T11:40:32;2.50;;;1.50;;
71108;SDS011;59614;51.012;-1.648;2022-07-09T11:42:57;4.97;;;1.58;;
71108;SDS011;59614;51.012;-1.648;2022-07-09T11:45:24;2.85;;;1.67;;
71108;SDS011;59614;51.012;-1.648;2022-07-09T11:48:06;4.55;;;1.67;;
71108;SDS011;59614;51.012;-1.648;2022-07-09T11:50:33;3.25;;;1.50;;
71108;SDS011;59614;51.012;-1.648;2022-07-09T11:53:06;4.15;;;1.60;;
71108;SDS011;59614;51.012;-1.648;2022-07-09T11:55:32;3.15;;;1.60;;
71108;SDS011;59614;51.012;-1.648;2022-07-09T11:57:59;7.57;;;1.55;;
71108;SDS011;59614;51.012;-1.648;2022-07-09T12:00:30;2.65;;;1.50;;
71108;SDS011;59614;51.012;-1.648;2022-07-09T12:02:58;2.22;;;1.63;;
71108;SDS011;59614;51.012;-1.648;2022-07-09T12:07:58;3.00;;;1.60;;
71108;SDS011;59614;51.012;-1.648;2022-07-09T12:10:30;3.88;;;1.48;;
71108;SDS011;59614;51.012;-1.648;2022-07-09T12:12:57;4.68;;;1.50;;
71108;SDS011;59614;51.012;-1.648;2022-07-09T12:15:24;4.03;;;1.60;;
71108;SDS011;59614;51.012;-1.648;2022-07-09T12:17:54;2.70;;;1.42;;
71108;SDS011;59614;51.012;-1.648;2022-07-09T12:20:25;2.40;;;1.40;;
71108;SDS011;59614;51.012;-1.648;2022-07-09T12:22:52;2.97;;;1.50;;
71108;SDS011;59614;51.012;-1.648;2022-07-09T12:25:18;3.55;;;1.63;;
71108;SDS011;59614;51.012;-1.648;2022-07-09T12:27:45;3.38;;;1.65;;
71108;SDS011;59614;51.012;-1.648;2022-07-09T12:30:11;3.80;;;1.40;;
71108;SDS011;59614;51.012;-1.648;2022-07-09T12:32:37;2.90;;;1.67;;
71108;SDS011;59614;51.012;-1.648;2022-07-09T12:35:03;1.67;;;1.50;;
71108;SDS011;59614;51.012;-1.648;2022-07-09T12:37:29;2.42;;;1.45;;
71108;SDS011;59614;51.012;-1.648;2022-07-09T12:39:54;2.38;;;1.50;;
71108;SDS011;59614;51.012;-1.648;2022-07-09T12:42:20;2.75;;;1.60;;
71108;SDS011;59614;51.012;-1.648;2022-07-09T12:44:46;2.95;;;1.40;;
71108;SDS011;59614;51.012;-1.648;2022-07-09T12:47:15;1.75;;;1.45;;
71108;SDS011;59614;51.012;-1.648;2022-07-09T12:49:41;2.80;;;1.65;;
71108;SDS011;59614;51.012;-1.648;2022-07-09T12:52:06;2.63;;;1.52;;
71108;SDS011;59614;51.012;-1.648;2022-07-09T12:54:32;2.22;;;1.50;;
71108;SDS011;59614;51.012;-1.648;2022-07-09T12:56:58;3.08;;;1.50;;
71108;SDS011;59614;51.012;-1.648;2022-07-09T12:59:23;5.30;;;1.70;;
71108;SDS011;59614;51.012;-1.648;2022-07-09T13:01:49;6.20;;;1.65;;
71108;SDS011;59614;51.012;-1.648;2022-07-09T13:04:15;2.70;;;1.50;;
71108;SDS011;59614;51.012;-1.648;2022-07-09T13:06:41;1.55;;;1.45;;
71108;SDS011;59614;51.012;-1.648;2022-07-09T13:09:07;2.05;;;1.60;;
71108;SDS011;59614;51.012;-1.648;2022-07-09T13:11:34;2.38;;;1.50;;
71108;SDS011;59614;51.012;-1.648;2022-07-09T13:14:01;1.92;;;1.40;;
71108;SDS011;59614;51.012;-1.648;2022-07-09T13:16:26;3.35;;;1.55;;
71108;SDS011;59614;51.012;-1.648;2022-07-09T13:18:52;2.60;;;1.73;;
71108;SDS011;59614;51.012;-1.648;2022-07-09T13:21:18;5.13;;;1.70;;
71108;SDS011;59614;51.012;-1.648;2022-07-09T13:23:44;2.47;;;1.70;;
71108;SDS011;59614;51.012;-1.648;2022-07-09T13:26:11;4.10;;;1.40;;
71108;SDS011;59614;51.012;-1.648;2022-07-09T13:28:36;3.90;;;1.60;;
71108;SDS011;59614;51.012;-1.648;2022-07-09T13:31:02;3.78;;;1.63;;
71108;SDS011;59614;51.012;-1.648;2022-07-09T13:33:27;6.50;;;1.70;;
71108;SDS011;59614;51.012;-1.648;2022-07-09T13:35:53;2.95;;;1.52;;
71108;SDS011;59614;51.012;-1.648;2022-07-09T13:38:19;1.80;;;1.40;;
71108;SDS011;59614;51.012;-1.648;2022-07-09T13:40:44;3.78;;;1.77;;
71108;SDS011;59614;51.012;-1.648;2022-07-09T13:43:10;6.85;;;1.55;;
71108;SDS011;59614;51.012;-1.648;2022-07-09T13:45:35;3.40;;;1.67;;
71108;SDS011;59614;51.012;-1.648;2022-07-09T13:48:01;3.63;;;1.70;;
71108;SDS011;59614;51.012;-1.648;2022-07-09T13:50:27;4.50;;;1.85;;
71108;SDS011;59614;51.012;-1.648;2022-07-09T13:52:53;4.60;;;1.80;;
71108;SDS011;59614;51.012;-1.648;2022-07-09T13:55:18;7.82;;;1.70;;
71108;SDS011;59614;51.012;-1.648;2022-07-09T13:57:43;3.45;;;1.60;;
71108;SDS011;59614;51.012;-1.648;2022-07-09T14:00:09;6.70;;;1.70;;
71108;SDS011;59614;51.012;-1.648;2022-07-09T14:02:35;2.42;;;1.65;;
71108;SDS011;59614;51.012;-1.648;2022-07-09T14:05:02;3.10;;;1.60;;
71108;SDS011;59614;51.012;-1.648;2022-07-09T14:07:29;1.80;;;1.58;;
71108;SDS011;59614;51.012;-1.648;2022-07-09T14:09:55;4.15;;;1.80;;
71108;SDS011;59614;51.012;-1.648;2022-07-09T14:12:21;3.80;;;1.33;;
71108;SDS011;59614;51.012;-1.648;2022-07-09T14:14:49;3.53;;;1.70;;
71108;SDS011;59614;51.012;-1.648;2022-07-09T14:17:17;2.97;;;1.58;;
71108;SDS011;59614;51.012;-1.648;2022-07-09T14:19:43;2.57;;;1.63;;
71108;SDS011;59614;51.012;-1.648;2022-07-09T14:22:09;5.20;;;1.80;;
71108;SDS011;59614;51.012;-1.648;2022-07-09T14:24:34;1.83;;;1.60;;
71108;SDS011;59614;51.012;-1.648;2022-07-09T14:27:00;4.70;;;1.87;;
71108;SDS011;59614;51.012;-1.648;2022-07-09T14:29:26;3.03;;;1.70;;
71108;SDS011;59614;51.012;-1.648;2022-07-09T14:31:52;2.33;;;1.60;;
71108;SDS011;59614;51.012;-1.648;2022-07-09T14:34:17;3.00;;;1.67;;
71108;SDS011;59614;51.012;-1.648;2022-07-09T14:36:44;3.72;;;1.70;;
71108;SDS011;59614;51.012;-1.648;2022-07-09T14:39:10;1.70;;;1.50;;
71108;SDS011;59614;51.012;-1.648;2022-07-09T14:41:35;1.90;;;1.50;;
71108;SDS011;59614;51.012;-1.648;2022-07-09T14:44:02;1.55;;;1.45;;
71108;SDS011;59614;51.012;-1.648;2022-07-09T14:46:28;2.55;;;1.65;;